createdAt,value
2022-10-16T00:01:45.813Z,100.00
2022-10-16T00:04:13.723Z,100.00
2022-10-16T00:06:41.322Z,100.00
2022-10-16T00:09:09.127Z,100.00
2022-10-16T00:11:38.721Z,100.00
2022-10-16T00:14:10.091Z,100.00
2022-10-16T00:16:38.723Z,100.00
2022-10-16T00:19:08.620Z,100.00
2022-10-16T00:21:36.660Z,100.00
2022-10-16T00:24:07.148Z,100.00
2022-10-16T00:26:36.279Z,100.00
2022-10-16T00:29:04.572Z,100.00
2022-10-16T00:31:33.516Z,100.00
2022-10-16T00:34:01.469Z,100.00
2022-10-16T00:36:29.385Z,100.00
2022-10-16T00:41:29.753Z,100.00
2022-10-16T00:43:59.122Z,100.00
2022-10-16T00:46:29.984Z,100.00
2022-10-16T00:49:03.388Z,100.00
2022-10-16T00:51:33.399Z,100.00
2022-10-16T00:54:01.620Z,100.00
2022-10-16T00:56:29.302Z,100.00
2022-10-16T00:58:57.066Z,100.00
2022-10-16T01:01:24.662Z,100.00
2022-10-16T01:03:52.241Z,100.00
2022-10-16T01:06:38.387Z,100.00
2022-10-16T01:09:15.784Z,100.00
2022-10-16T01:11:50.840Z,100.00
2022-10-16T01:14:27.153Z,100.00
2022-10-16T01:17:02.016Z,100.00
2022-10-16T01:19:51.001Z,100.00
2022-10-16T01:22:26.302Z,100.00
2022-10-16T01:24:56.671Z,100.00
2022-10-16T01:27:29.253Z,100.00
2022-10-16T01:30:03.568Z,100.00
2022-10-16T01:32:38.262Z,100.00
2022-10-16T01:35:11.590Z,100.00
2022-10-16T01:37:41.424Z,100.00
2022-10-16T01:40:13.530Z,100.00
2022-10-16T01:42:46.092Z,100.00
2022-10-16T01:45:18.913Z,100.00
2022-10-16T01:47:48.716Z,100.00
2022-10-16T01:50:18.812Z,100.00
2022-10-16T01:52:50.219Z,100.00
2022-10-16T01:55:22.624Z,100.00
2022-10-16T01:57:54.050Z,100.00
2022-10-16T02:00:24.320Z,100.00
2022-10-16T02:02:56.041Z,100.00
2022-10-16T02:05:28.309Z,100.00
2022-10-16T02:07:57.078Z,100.00
2022-10-16T02:10:26.624Z,100.00
2022-10-16T02:13:01.146Z,100.00
2022-10-16T02:15:28.698Z,100.00
2022-10-16T02:17:56.287Z,100.00
2022-10-16T02:20:29.285Z,100.00
2022-10-16T02:22:59.167Z,100.00
2022-10-16T02:25:31.993Z,100.00
2022-10-16T02:28:07.408Z,100.00
2022-10-16T02:30:40.461Z,100.00
2022-10-16T02:33:11.529Z,100.00
2022-10-16T02:35:40.452Z,100.00
2022-10-16T02:40:38.873Z,100.00
2022-10-16T02:43:08.627Z,100.00
2022-10-16T02:45:36.319Z,100.00
2022-10-16T02:48:03.845Z,100.00
2022-10-16T02:50:31.369Z,100.00
2022-10-16T02:52:58.976Z,100.00
2022-10-16T02:55:27.022Z,100.00
2022-10-16T02:57:54.861Z,100.00
2022-10-16T03:00:23.810Z,100.00
2022-10-16T03:02:51.807Z,100.00
2022-10-16T03:05:19.545Z,100.00
2022-10-16T03:07:47.191Z,100.00
2022-10-16T03:10:14.921Z,100.00
2022-10-16T03:12:42.444Z,100.00
2022-10-16T03:15:10.736Z,100.00
2022-10-16T03:17:39.641Z,100.00
2022-10-16T03:20:08.188Z,100.00
2022-10-16T03:22:35.749Z,100.00
2022-10-16T03:25:03.497Z,100.00
2022-10-16T03:27:30.999Z,100.00
2022-10-16T03:29:58.587Z,100.00
2022-10-16T03:32:26.601Z,100.00
2022-10-16T03:34:57.280Z,100.00
2022-10-16T03:37:25.305Z,100.00
2022-10-16T03:39:53.042Z,100.00
2022-10-16T03:42:20.560Z,100.00
2022-10-16T03:44:48.086Z,100.00
2022-10-16T03:47:15.691Z,100.00
2022-10-16T03:49:43.213Z,100.00
2022-10-16T03:52:12.684Z,100.00
2022-10-16T03:54:40.261Z,100.00
2022-10-16T03:57:07.799Z,100.00
2022-10-16T03:59:35.305Z,100.00
2022-10-16T04:02:02.793Z,100.00
2022-10-16T04:04:30.324Z,100.00
2022-10-16T04:06:57.872Z,100.00
2022-10-16T04:09:26.727Z,100.00
2022-10-16T04:11:54.297Z,100.00
2022-10-16T04:14:21.828Z,100.00
2022-10-16T04:16:49.410Z,100.00
2022-10-16T04:19:17.034Z,100.00
2022-10-16T04:21:44.560Z,100.00
2022-10-16T04:24:13.041Z,100.00
2022-10-16T04:26:41.893Z,100.00
2022-10-16T04:29:09.479Z,100.00
2022-10-16T04:31:37.016Z,100.00
2022-10-16T04:34:04.556Z,100.00
2022-10-16T04:36:32.086Z,100.00
2022-10-16T04:38:59.665Z,100.00
2022-10-16T04:41:27.215Z,100.00
2022-10-16T04:43:56.074Z,100.00
2022-10-16T04:46:23.727Z,100.00
2022-10-16T04:48:51.212Z,100.00
2022-10-16T04:51:19.725Z,100.00
2022-10-16T04:53:47.232Z,100.00
2022-10-16T04:56:15.953Z,100.00
2022-10-16T04:58:43.508Z,100.00
2022-10-16T05:01:12.383Z,100.00
2022-10-16T05:03:39.930Z,100.00
2022-10-16T05:06:07.553Z,100.00
2022-10-16T05:08:35.313Z,100.00
2022-10-16T05:11:02.877Z,100.00
2022-10-16T05:13:30.628Z,100.00
2022-10-16T05:15:58.145Z,100.00
2022-10-16T05:18:27.040Z,100.00
2022-10-16T05:20:54.564Z,100.00
2022-10-16T05:23:22.116Z,100.00
2022-10-16T05:25:55.338Z,100.00
2022-10-16T05:28:23.320Z,100.00
2022-10-16T05:30:50.855Z,100.00
2022-10-16T05:33:18.410Z,100.00
2022-10-16T05:35:47.425Z,100.00
2022-10-16T05:38:15.077Z,100.00
2022-10-16T05:40:42.643Z,100.00
2022-10-16T05:43:10.329Z,100.00
2022-10-16T05:45:38.045Z,100.00
2022-10-16T05:48:06.173Z,100.00
2022-10-16T05:50:33.928Z,100.00
2022-10-16T05:53:02.822Z,100.00
2022-10-16T05:55:30.360Z,100.00
2022-10-16T05:57:57.878Z,100.00
2022-10-16T06:00:25.410Z,100.00
2022-10-16T06:02:52.919Z,100.00
2022-10-16T06:05:20.446Z,100.00
2022-10-16T06:07:48.012Z,100.00
2022-10-16T06:10:17.076Z,100.00
2022-10-16T06:12:44.695Z,100.00
2022-10-16T06:15:12.213Z,100.00
2022-10-16T06:17:39.797Z,100.00
2022-10-16T06:20:08.017Z,100.00
2022-10-16T06:22:35.508Z,100.00
2022-10-16T06:25:03.017Z,100.00
2022-10-16T06:27:31.847Z,100.00
2022-10-16T06:29:59.471Z,100.00
2022-10-16T06:32:26.969Z,100.00
2022-10-16T06:34:54.515Z,100.00
2022-10-16T06:37:22.942Z,100.00
2022-10-16T06:39:50.519Z,100.00
2022-10-16T06:42:18.115Z,100.00
2022-10-16T06:44:47.606Z,100.00
2022-10-16T06:47:15.102Z,100.00
2022-10-16T06:49:42.625Z,100.00
2022-10-16T06:52:10.182Z,100.00
2022-10-16T06:54:42.275Z,100.00
2022-10-16T06:57:10.216Z,100.00
2022-10-16T06:59:37.764Z,100.00
2022-10-16T07:02:07.875Z,100.00
2022-10-16T07:04:35.399Z,100.00
2022-10-16T07:07:05.665Z,100.00
2022-10-16T07:09:36.125Z,100.00
2022-10-16T07:12:03.733Z,100.00
2022-10-16T07:14:31.827Z,100.00
2022-10-16T07:16:59.505Z,100.00
2022-10-16T07:19:31.906Z,100.00
2022-10-16T07:22:01.321Z,100.00
2022-10-16T07:24:28.858Z,100.00
2022-10-16T07:26:56.357Z,100.00
2022-10-16T07:29:24.133Z,100.00
2022-10-16T07:31:51.865Z,100.00
2022-10-16T07:34:22.523Z,100.00
2022-10-16T07:36:52.098Z,100.00
2022-10-16T07:39:19.992Z,100.00
2022-10-16T07:41:47.498Z,100.00
2022-10-16T07:44:15.076Z,100.00
2022-10-16T07:46:42.580Z,100.00
2022-10-16T07:49:11.275Z,100.00
2022-10-16T07:51:40.133Z,100.00
2022-10-16T07:54:10.229Z,100.00
2022-10-16T07:56:39.976Z,100.00
2022-10-16T07:59:10.556Z,100.00
2022-10-16T08:01:38.342Z,100.00
2022-10-16T08:04:07.100Z,100.00
2022-10-16T08:06:37.979Z,100.00
2022-10-16T08:09:05.949Z,100.00
2022-10-16T08:11:35.133Z,100.00
2022-10-16T08:14:02.684Z,100.00
2022-10-16T08:16:30.554Z,100.00
2022-10-16T08:18:58.088Z,99.22
2022-10-16T08:21:25.853Z,98.73
2022-10-16T08:23:57.245Z,98.54
2022-10-16T08:26:26.683Z,98.17
2022-10-16T08:28:56.501Z,98.67
2022-10-16T08:31:24.728Z,98.92
2022-10-16T08:33:53.255Z,98.51
2022-10-16T08:36:20.952Z,98.13
2022-10-16T08:38:49.835Z,97.66
2022-10-16T08:41:27.094Z,97.98
2022-10-16T08:44:19.234Z,97.72
2022-10-16T08:46:57.061Z,97.29
2022-10-16T08:49:25.474Z,96.83
2022-10-16T08:51:53.142Z,96.52
2022-10-16T08:54:31.052Z,95.06
2022-10-16T08:57:02.603Z,93.45
2022-10-16T08:59:31.451Z,92.66
2022-10-16T09:01:58.953Z,91.95
2022-10-16T09:04:56.986Z,91.63
2022-10-16T09:07:33.227Z,89.66
2022-10-16T09:10:13.939Z,89.17
2022-10-16T09:12:51.372Z,86.99
2022-10-16T09:15:30.075Z,87.46
2022-10-16T09:18:05.497Z,85.12
2022-10-16T09:20:40.279Z,84.78
2022-10-16T09:23:16.756Z,83.75
2022-10-16T09:25:48.548Z,82.58
2022-10-16T09:28:17.121Z,82.34
2022-10-16T09:30:46.882Z,81.20
2022-10-16T09:33:15.496Z,81.68
2022-10-16T09:35:45.931Z,80.78
2022-10-16T09:38:24.172Z,80.23
2022-10-16T09:40:58.863Z,81.19
2022-10-16T09:43:36.182Z,80.27
2022-10-16T09:46:05.630Z,79.76
2022-10-16T09:48:38.255Z,79.74
2022-10-16T09:51:08.734Z,79.91
2022-10-16T09:53:44.443Z,79.30
2022-10-16T09:56:14.791Z,79.20
2022-10-16T09:58:51.124Z,77.86
2022-10-16T10:01:22.263Z,76.86
2022-10-16T10:03:51.010Z,76.47
2022-10-16T10:06:23.323Z,76.27
2022-10-16T10:08:59.093Z,76.36
2022-10-16T10:11:53.432Z,76.73
2022-10-16T10:14:27.574Z,76.61
2022-10-16T10:17:11.578Z,76.93
2022-10-16T10:19:41.046Z,76.38
2022-10-16T10:22:19.347Z,76.75
2022-10-16T10:24:56.172Z,77.61
2022-10-16T10:27:28.985Z,77.78
2022-10-16T10:30:03.270Z,77.65
2022-10-16T10:32:40.151Z,76.59
2022-10-16T10:35:20.920Z,76.50
2022-10-16T10:38:04.198Z,76.44
2022-10-16T10:40:45.746Z,75.32
2022-10-16T10:43:27.513Z,74.50
2022-10-16T10:46:00.018Z,71.64
2022-10-16T10:48:49.465Z,72.11
2022-10-16T10:51:25.198Z,69.05
2022-10-16T10:54:04.355Z,68.87
2022-10-16T10:56:44.770Z,65.80
2022-10-16T10:59:30.479Z,65.52
2022-10-16T11:02:05.563Z,63.30
2022-10-16T11:04:57.013Z,62.71
2022-10-16T11:07:30.621Z,64.33
2022-10-16T11:10:01.683Z,63.43
2022-10-16T11:12:35.197Z,62.79
2022-10-16T11:15:06.957Z,62.64
2022-10-16T11:17:40.235Z,63.02
2022-10-16T11:20:18.137Z,61.98
2022-10-16T11:22:52.113Z,61.19
2022-10-16T11:25:24.229Z,60.83
2022-10-16T11:27:56.509Z,61.36
2022-10-16T11:30:26.680Z,61.89
2022-10-16T11:33:05.291Z,58.59
2022-10-16T11:35:44.110Z,59.75
2022-10-16T11:38:17.926Z,57.76
2022-10-16T11:40:49.552Z,56.97
2022-10-16T11:43:22.342Z,56.63
2022-10-16T11:45:53.527Z,54.58
2022-10-16T11:48:29.420Z,54.63
2022-10-16T11:51:04.840Z,52.04
2022-10-16T11:53:43.648Z,52.33
2022-10-16T11:56:14.472Z,52.34
2022-10-16T11:58:51.317Z,53.11
2022-10-16T12:04:08.259Z,51.74
2022-10-16T12:06:42.199Z,52.55
2022-10-16T12:09:17.714Z,51.58
2022-10-16T12:11:45.360Z,50.77
2022-10-16T12:14:42.990Z,51.87
2022-10-16T12:17:27.981Z,51.67
2022-10-16T12:20:17.122Z,52.97
2022-10-16T12:22:55.438Z,53.91
2022-10-16T12:25:26.641Z,54.23
2022-10-16T12:28:03.532Z,55.93
2022-10-16T12:30:35.852Z,56.22
2022-10-16T12:33:07.416Z,58.66
2022-10-16T12:35:45.090Z,59.14
2022-10-16T12:38:21.039Z,57.79
2022-10-16T12:40:56.905Z,57.07
2022-10-16T12:43:36.908Z,56.98
2022-10-16T12:46:21.735Z,57.15
2022-10-16T12:49:06.043Z,58.46
2022-10-16T12:51:37.312Z,57.01
2022-10-16T12:54:15.847Z,57.91
2022-10-16T12:56:53.682Z,58.44
2022-10-16T12:59:31.910Z,59.14
2022-10-16T13:02:17.898Z,59.72
2022-10-16T13:04:54.980Z,59.39
2022-10-16T13:07:45.667Z,59.48
2022-10-16T13:10:25.395Z,60.14
2022-10-16T13:13:14.975Z,60.12
2022-10-16T13:16:03.580Z,60.21
2022-10-16T13:18:38.793Z,62.36
2022-10-16T13:21:19.870Z,64.13
2022-10-16T13:23:58.136Z,64.34
2022-10-16T13:26:37.940Z,65.68
2022-10-16T13:29:06.075Z,67.77
2022-10-16T13:31:35.085Z,66.66
2022-10-16T13:34:03.280Z,67.05
2022-10-16T13:36:36.380Z,68.25
2022-10-16T13:39:13.868Z,69.00
2022-10-16T13:41:43.250Z,70.21
2022-10-16T13:44:16.335Z,71.48
2022-10-16T13:46:44.056Z,70.33
2022-10-16T13:49:16.801Z,68.45
2022-10-16T13:51:56.207Z,68.49
2022-10-16T13:54:24.358Z,67.29
2022-10-16T13:57:03.454Z,67.93
2022-10-16T13:59:38.558Z,70.27
2022-10-16T14:02:19.869Z,71.73
2022-10-16T14:04:48.559Z,72.99
2022-10-16T14:07:21.555Z,74.50
2022-10-16T14:09:52.016Z,75.83
2022-10-16T14:12:24.009Z,77.32
2022-10-16T14:14:56.129Z,77.23
2022-10-16T14:17:26.750Z,78.43
2022-10-16T14:19:59.639Z,79.20
2022-10-16T14:22:34.552Z,79.16
2022-10-16T14:25:02.941Z,79.46
2022-10-16T14:27:36.222Z,78.17
2022-10-16T14:30:10.470Z,75.03
2022-10-16T14:32:37.964Z,71.40
2022-10-16T14:35:06.293Z,68.21
2022-10-16T14:37:34.268Z,65.44
2022-10-16T14:40:03.905Z,63.12
2022-10-16T14:42:32.886Z,63.26
2022-10-16T14:45:00.465Z,62.21
2022-10-16T14:47:28.985Z,62.50
2022-10-16T14:49:59.182Z,62.64
2022-10-16T14:52:26.746Z,63.00
2022-10-16T14:54:55.563Z,65.71
2022-10-16T14:57:26.351Z,67.87
2022-10-16T14:59:55.853Z,67.57
2022-10-16T15:02:29.204Z,67.47
2022-10-16T15:04:57.527Z,66.76
2022-10-16T15:07:25.855Z,66.05
2022-10-16T15:09:54.589Z,64.90
2022-10-16T15:12:22.178Z,64.51
2022-10-16T15:14:49.714Z,63.59
2022-10-16T15:17:21.375Z,64.09
2022-10-16T15:19:49.830Z,64.23
2022-10-16T15:22:17.480Z,63.81
2022-10-16T15:24:45.127Z,63.38
2022-10-16T15:27:12.648Z,64.95
2022-10-16T15:29:40.154Z,65.70
2022-10-16T15:32:07.661Z,66.93
2022-10-16T15:34:36.519Z,67.80
2022-10-16T15:37:05.388Z,69.14
2022-10-16T15:39:34.227Z,70.31
2022-10-16T15:42:04.156Z,70.78
2022-10-16T15:44:31.667Z,71.14
2022-10-16T15:46:59.401Z,72.26
2022-10-16T15:49:27.064Z,72.82
2022-10-16T15:51:56.075Z,74.11
2022-10-16T15:54:23.710Z,75.25
2022-10-16T15:56:51.263Z,75.69
2022-10-16T15:59:21.638Z,76.20
2022-10-16T16:01:49.237Z,77.45
2022-10-16T16:04:42.165Z,77.72
2022-10-16T16:07:08.167Z,78.38
2022-10-16T16:09:35.724Z,77.99
2022-10-16T16:12:03.301Z,79.36
2022-10-16T16:14:31.046Z,80.17
2022-10-16T16:16:59.244Z,80.84
2022-10-16T16:19:26.864Z,81.33
2022-10-16T16:21:54.558Z,83.31
2022-10-16T16:24:23.625Z,84.22
2022-10-16T16:26:51.277Z,85.11
2022-10-16T16:29:18.945Z,86.14
2022-10-16T16:31:47.999Z,86.92
2022-10-16T16:34:16.001Z,88.08
2022-10-16T16:36:43.568Z,88.63
2022-10-16T16:39:11.574Z,88.54
2022-10-16T16:41:40.515Z,89.37
2022-10-16T16:44:10.632Z,89.61
2022-10-16T16:46:40.300Z,90.23
2022-10-16T16:49:08.628Z,91.82
2022-10-16T16:51:39.728Z,92.72
2022-10-16T16:54:09.031Z,93.33
2022-10-16T16:56:36.909Z,93.38
2022-10-16T16:59:05.892Z,93.74
2022-10-16T17:01:33.653Z,94.54
2022-10-16T17:04:03.068Z,94.15
2022-10-16T17:06:31.382Z,94.34
2022-10-16T17:08:59.599Z,94.95
2022-10-16T17:11:28.680Z,95.48
2022-10-16T17:13:59.464Z,96.17
2022-10-16T17:16:31.286Z,96.10
2022-10-16T17:19:01.864Z,96.07
2022-10-16T17:21:30.495Z,96.46
2022-10-16T17:23:58.721Z,96.47
2022-10-16T17:26:27.580Z,97.42
2022-10-16T17:29:00.829Z,97.46
2022-10-16T17:31:32.111Z,97.68
2022-10-16T17:34:00.342Z,98.26
2022-10-16T17:36:29.857Z,98.39
2022-10-16T17:39:01.540Z,98.42
2022-10-16T17:41:29.195Z,98.21
2022-10-16T17:43:56.787Z,98.72
2022-10-16T17:46:25.487Z,99.21
2022-10-16T17:48:56.468Z,99.43
2022-10-16T17:51:30.386Z,99.24
2022-10-16T17:54:00.673Z,98.92
2022-10-16T17:56:28.968Z,99.74
2022-10-16T17:58:59.723Z,99.99
2022-10-16T18:01:29.961Z,100.00
2022-10-16T18:04:00.988Z,100.00
2022-10-16T18:06:29.175Z,100.00
2022-10-16T18:08:58.984Z,100.00
2022-10-16T18:11:27.507Z,100.00
2022-10-16T18:13:55.995Z,100.00
2022-10-16T18:16:24.455Z,100.00
2022-10-16T18:18:52.095Z,100.00
2022-10-16T18:21:21.847Z,100.00
2022-10-16T18:23:51.776Z,100.00
2022-10-16T18:26:20.713Z,100.00
2022-10-16T18:28:50.850Z,100.00
2022-10-16T18:31:19.291Z,100.00
2022-10-16T18:33:50.431Z,100.00
2022-10-16T18:36:20.526Z,100.00
2022-10-16T18:38:50.059Z,100.00
2022-10-16T18:41:17.794Z,100.00
2022-10-16T18:43:45.449Z,100.00
2022-10-16T18:46:15.969Z,100.00
2022-10-16T18:48:44.150Z,100.00
2022-10-16T18:51:14.602Z,100.00
2022-10-16T18:53:44.338Z,100.00
2022-10-16T18:56:14.824Z,100.00
2022-10-16T18:58:43.129Z,100.00
2022-10-16T19:01:16.242Z,100.00
2022-10-16T19:03:44.766Z,100.00
2022-10-16T19:06:14.932Z,100.00
2022-10-16T19:08:43.321Z,100.00
2022-10-16T19:11:14.788Z,100.00
2022-10-16T19:13:42.668Z,100.00
2022-10-16T19:16:21.294Z,100.00
2022-10-16T19:18:49.645Z,100.00
2022-10-16T19:21:18.458Z,100.00
2022-10-16T19:23:46.434Z,100.00
2022-10-16T19:26:17.508Z,100.00
2022-10-16T19:28:46.069Z,100.00
2022-10-16T19:31:16.377Z,100.00
2022-10-16T19:33:44.420Z,100.00
2022-10-16T19:36:13.977Z,100.00
2022-10-16T19:38:42.632Z,100.00
2022-10-16T19:41:11.544Z,100.00
2022-10-16T19:43:41.361Z,100.00
2022-10-16T19:46:11.446Z,100.00
2022-10-16T19:48:39.976Z,100.00
2022-10-16T19:51:08.972Z,100.00
2022-10-16T19:53:36.520Z,100.00
2022-10-16T19:56:13.152Z,100.00
2022-10-16T19:58:42.258Z,100.00
2022-10-16T20:01:10.285Z,100.00
2022-10-16T20:03:39.313Z,100.00
2022-10-16T20:06:08.209Z,100.00
2022-10-16T20:08:36.815Z,100.00
2022-10-16T20:11:05.528Z,100.00
2022-10-16T20:13:35.393Z,100.00
2022-10-16T20:16:08.299Z,100.00
2022-10-16T20:18:36.191Z,100.00
2022-10-16T20:21:09.223Z,100.00
2022-10-16T20:23:36.926Z,100.00
2022-10-16T20:26:04.649Z,100.00
2022-10-16T20:28:32.692Z,100.00
2022-10-16T20:31:06.521Z,100.00
2022-10-16T20:33:35.520Z,100.00
2022-10-16T20:36:03.077Z,100.00
2022-10-16T20:38:30.700Z,100.00
2022-10-16T20:41:04.569Z,100.00
2022-10-16T20:43:32.356Z,100.00
2022-10-16T20:46:00.840Z,100.00
2022-10-16T20:48:28.436Z,100.00
2022-10-16T20:50:57.399Z,100.00
2022-10-16T20:53:24.942Z,100.00
2022-10-16T20:55:52.537Z,100.00
2022-10-16T20:58:20.109Z,100.00
2022-10-16T21:00:47.763Z,100.00
2022-10-16T21:03:15.354Z,100.00
2022-10-16T21:05:43.527Z,100.00
2022-10-16T21:08:12.422Z,100.00
2022-10-16T21:10:40.088Z,100.00
2022-10-16T21:13:07.643Z,100.00
2022-10-16T21:15:35.198Z,100.00
2022-10-16T21:18:02.763Z,100.00
2022-10-16T21:20:30.492Z,100.00
2022-10-16T21:22:58.141Z,100.00
2022-10-16T21:25:27.244Z,100.00
2022-10-16T21:27:54.836Z,100.00
2022-10-16T21:30:22.396Z,100.00
2022-10-16T21:32:49.994Z,100.00
2022-10-16T21:35:17.865Z,100.00
2022-10-16T21:37:49.644Z,100.00
2022-10-16T21:40:17.256Z,100.00
2022-10-16T21:42:46.164Z,100.00
2022-10-16T21:45:14.033Z,100.00
2022-10-16T21:47:41.757Z,100.00
2022-10-16T21:50:10.035Z,100.00
2022-10-16T21:52:37.648Z,100.00
2022-10-16T21:55:05.864Z,100.00
2022-10-16T21:57:33.564Z,100.00
2022-10-16T22:00:05.448Z,100.00
2022-10-16T22:02:34.797Z,100.00
2022-10-16T22:05:02.573Z,100.00
2022-10-16T22:07:30.792Z,100.00
2022-10-16T22:09:58.526Z,100.00
2022-10-16T22:12:26.235Z,100.00
2022-10-16T22:14:53.878Z,100.00
2022-10-16T22:17:22.853Z,100.00
2022-10-16T22:19:50.524Z,100.00
2022-10-16T22:22:18.192Z,100.00
2022-10-16T22:24:46.906Z,100.00
2022-10-16T22:27:14.653Z,100.00
2022-10-16T22:29:42.311Z,100.00
2022-10-16T22:32:09.889Z,100.00
2022-10-16T22:34:38.859Z,100.00
2022-10-16T22:37:06.455Z,100.00
2022-10-16T22:39:34.222Z,100.00
2022-10-16T22:42:02.025Z,100.00
2022-10-16T22:44:29.733Z,100.00
2022-10-16T22:46:57.645Z,100.00
2022-10-16T22:49:25.605Z,100.00
2022-10-16T22:51:54.556Z,100.00
2022-10-16T22:54:22.176Z,100.00
2022-10-16T22:56:49.897Z,100.00
2022-10-16T22:59:17.500Z,100.00
2022-10-16T23:01:45.070Z,100.00
2022-10-16T23:04:12.752Z,100.00
2022-10-16T23:06:40.467Z,100.00
2022-10-16T23:09:11.576Z,100.00
2022-10-16T23:11:39.286Z,100.00
2022-10-16T23:14:07.001Z,100.00
2022-10-16T23:16:34.677Z,100.00
2022-10-16T23:19:02.358Z,100.00
2022-10-16T23:21:30.035Z,100.00
2022-10-16T23:23:57.756Z,100.00
2022-10-16T23:26:28.124Z,100.00
2022-10-16T23:28:57.936Z,100.00
2022-10-16T23:31:26.339Z,100.00
2022-10-16T23:33:54.165Z,100.00
2022-10-16T23:36:22.464Z,100.00
2022-10-16T23:38:50.730Z,100.00
2022-10-16T23:41:19.688Z,100.00
2022-10-16T23:43:49.157Z,100.00
2022-10-16T23:46:16.940Z,100.00
2022-10-16T23:48:44.927Z,100.00
2022-10-16T23:51:12.729Z,100.00
2022-10-16T23:53:40.741Z,100.00
2022-10-16T23:56:09.052Z,100.00
2022-10-16T23:58:37.067Z,100.00
